Flight Track Log - Related Links

Times and Time Zones

All times are in EDT time to prevent confusion due to time zone crossing. See the SWA3121 flight status page for this flight to view local times or setup timezone preferences in your user account.

Time Position Orientation Groundspeed Altitude Reporting Facility
EDT Latitude Longitude Course Direction KTS MPH feet Rate Location/Type
Mon 04:16:38 PM 35.9308 -78.7472 27° Northeast 199 229 4,100  Level Washington Center
Mon 04:17:39 PM 35.9967 -78.7806 338° Northwest 294 338 6,400 1,419 Climbing Washington Center
Mon 04:19:06 PM 36.0039 -78.9042 274° West 283 326 7,600 2,122 Climbing Washington Center
Mon 04:20:06 PM 35.9681 -78.9900 243° Southwest 271 312 11,600 2,250 Climbing Washington Center
Mon 04:21:06 PM 35.9233 -79.0906 241° Southwest 301 346 12,100 500 Climbing Washington Center
Mon 04:22:06 PM 35.8853 -79.1786 242° Southwest 325 374 12,600 2,400 Climbing Washington Center
Mon 04:23:06 PM 35.8400 -79.2969 245° Southwest 341 392 16,900 3,550 Climbing Washington Center
Mon 04:25:17 PM 35.8119 -79.5653 263° West 359 413 23,900 2,827 Climbing Atlanta Center
Mon 04:26:17 PM 35.7908 -79.6739 257° West 367 422 25,900 1,050 Climbing Atlanta Center
Mon 04:27:17 PM 35.7936 -79.8144 271° West 379 436 26,000 1,000 Climbing Atlanta Center
Mon 04:28:17 PM 35.7961 -79.9500 271° West 389 448 27,900 2,100 Climbing Atlanta Center
Mon 04:29:17 PM 35.8025 -80.0831 273° West 389 448 30,200 2,050 Climbing Atlanta Center
Mon 04:30:17 PM 35.8092 -80.2208 273° West 389 448 32,000 900 Climbing Atlanta Center
Mon 04:31:17 PM 35.8153 -80.3589 273° West 407 468 32,000  Level Atlanta Center
Mon 04:32:17 PM 35.8214 -80.4944 273° West 407 468 32,000 200 Level Atlanta Center
Mon 04:33:17 PM 35.8275 -80.6297 273° West 396 456 32,400 1,000 Climbing Atlanta Center
Mon 04:34:17 PM 35.8311 -80.7628 272° West 402 463 34,000 800 Climbing Atlanta Center
Mon 04:35:17 PM 35.8367 -80.8958 273° West 402 463 34,000  Level Atlanta Center
Mon 04:36:17 PM 35.8419 -81.0289 273° West 402 463 34,000  Level Atlanta Center
Mon 04:37:17 PM 35.8472 -81.1619 273° West 402 463 34,000  Level Atlanta Center
Mon 04:38:17 PM 35.8503 -81.2975 272° West 402 463 34,000 -250 Level Atlanta Center
Mon 04:39:17 PM 35.8553 -81.4306 273° West 402 463 33,500 -750 Descending Atlanta Center
Mon 04:40:17 PM 35.8581 -81.5661 271° West 402 463 32,500 -900 Descending Atlanta Center
Mon 04:41:17 PM 35.8647 -81.6892 274° West 402 463 31,700 -950 Descending Atlanta Center
Mon 04:42:17 PM 35.8672 -81.8222 271° West 402 463 30,600 -850 Descending Atlanta Center
Mon 04:43:17 PM 35.8717 -81.9503 272° West 388 447 30,000 -300 Descending Atlanta Center
Mon 04:44:17 PM 35.8736 -82.0833 271° West 383 441 30,000  Level Atlanta Center
Mon 04:45:17 PM 35.8758 -82.2114 271° West 383 441 30,000  Level Atlanta Center
Mon 04:46:17 PM 35.8778 -82.3525 271° West 383 441 30,000  Level Atlanta Center
Mon 04:47:17 PM 35.8817 -82.4856 272° West 383 441 30,000  Level Atlanta Center
Mon 04:48:17 PM 35.8831 -82.6139 271° West 377 434 30,000  Level Atlanta Center
Mon 04:49:17 PM 35.8867 -82.7444 272° West 383 441 30,000  Level Atlanta Center
Mon 04:50:17 PM 35.8881 -82.8750 271° West 383 441 30,000  Level Atlanta Center
Mon 04:51:17 PM 35.8892 -83.0058 271° West 383 441 30,000  Level Atlanta Center
Mon 04:52:17 PM 35.8922 -83.1364 272° West 383 441 30,000  Level Atlanta Center
Mon 04:53:17 PM 35.8953 -83.2544 272° West 383 441 30,000  Level Atlanta Center
Mon 04:54:17 PM 35.8981 -83.3800 272° West 378 435 30,000  Level Atlanta Center
Mon 04:55:17 PM 35.9008 -83.5133 272° West 384 442 30,000  Level Atlanta Center
Mon 04:56:17 PM 35.9011 -83.6414 270° West 384 442 30,000 -300 Level Atlanta Center
Mon 04:57:17 PM 35.9036 -83.7722 271° West 384 442 29,400 -750 Descending Atlanta Center
Mon 04:58:17 PM 35.9039 -83.9056 270° West 384 442 28,500 -950 Descending Atlanta Center
Mon 04:59:17 PM 35.8811 -84.0361 258° West 384 442 27,500 -1,000 Descending Atlanta Center
Mon 05:00:17 PM 35.8600 -84.1642 259° West 389 448 26,500 -1,000 Descending Atlanta Center
Mon 05:01:17 PM 35.8389 -84.2922 259° West 389 448 25,500 -1,000 Descending Atlanta Center
Mon 05:02:17 PM 35.8178 -84.4153 258° West 384 442 24,500 -1,250 Descending Atlanta Center
Mon 05:03:17 PM 35.7964 -84.5456 259° West 384 442 23,000 -1,550 Descending Atlanta Center
Mon 05:04:17 PM 35.7750 -84.6658 258° West 379 436 21,400 -1,300 Descending Atlanta Center
Mon 05:05:17 PM 35.7556 -84.7886 259° West 369 425 20,400 -426 Descending Atlanta Center
Mon 05:07:34 PM 35.7075 -85.0547 258° West 354 407 20,000 -122 Descending Memphis Center
Mon 05:08:34 PM 35.6892 -85.1683 259° West 359 413 20,000  Level Memphis Center
Mon 05:09:34 PM 35.6669 -85.2872 257° West 359 413 20,000  Level Memphis Center
Mon 05:10:34 PM 35.6614 -85.4053 267° West 359 413 20,000  Level Memphis Center
Mon 05:11:34 PM 35.6597 -85.5228 269° West 354 407 20,000  Level Memphis Center
Mon 05:12:34 PM 35.6622 -85.6403 272° West 349 402 20,000  Level Memphis Center
Mon 05:13:34 PM 35.6625 -85.7578 270° West 349 402 20,000 -350 Level Memphis Center
Mon 05:14:34 PM 35.6631 -85.8906 270° West 349 402 19,300 -1,400 Descending Memphis Center
Mon 05:15:34 PM 35.6650 -86.0028 271° West 343 395 17,200 350 Descending Memphis Center
Mon 05:16:34 PM 35.6958 -86.1061 290° West 318 366 20,000 -2,150 Climbing Memphis Center
Mon 05:17:34 PM 35.7569 -86.1847 314° West 312 359 12,900 -4,550 Descending Memphis Center
Mon 05:18:34 PM 35.8136 -86.2639 311° West 317 365 10,900 -1,500 Descending Memphis Center
Mon 05:19:34 PM 35.8725 -86.3378 315° West 308 354 9,900 -1,200 Descending Memphis Center
Mon 05:20:34 PM 35.9247 -86.4069 313° West 292 336 8,500 -1,350 Descending Memphis Center
Mon 05:21:34 PM 35.9703 -86.4689 312° West 279 321 7,200 -1,450 Descending Memphis Center
Mon 05:22:34 PM 36.0425 -86.5064 337° Northwest 274 315 5,600 -1,650 Descending Memphis Center
Mon 05:23:34 PM 36.1147 -86.5467 336° Northwest 274 315 3,900 -1,350 Descending Memphis Center
Mon 05:24:34 PM 36.1844 -86.5847 336° Northwest 274 315 2,900 -700 Descending Memphis Center
Mon 05:25:34 PM 36.2006 -86.6303 294° West 181 208 2,500 -850 Descending Memphis Center
Mon 05:26:34 PM 36.1656 -86.6472 201° Southwest 93 107 1,200 -1,300 Descending Memphis Center
Mon 05:28:00 PM 36.1245 -86.6782 172° South  Level Estimated
Mon 05:35:00 PM 36.1245 -86.6782 345° North  Level Estimated
Mon 05:36:00 PM 36.1245 -86.6782 345° North  Level Estimated
Mon 05:37:00 PM 36.1245 -86.6782 345° North  Level Estimated
Mon 05:38:00 PM 36.1245 -86.6782 345° North  Level Estimated
Mon 05:39:00 PM 36.1245 -86.6782 345° North  Level Estimated
Mon 05:40:00 PM 36.1245 -86.6782 345° North  Level Estimated
Mon 05:41:00 PM 36.1245 -86.6782 345° North  Level Estimated
Mon 05:42:00 PM 36.1245 -86.6782 345° North  Level Estimated
Mon 05:43:00 PM 36.1245 -86.6782 345° North  Level Estimated
Mon 05:44:00 PM 36.1245 -86.6782 345° North  Level Estimated
Mon 05:45:00 PM 36.1245 -86.6782 345° North  Level Estimated
Mon 05:46:00 PM 36.1245 -86.6782 345° North  Level Estimated
Mon 05:47:00 PM 36.1245 -86.6782 345° North  Level Estimated
Mon 05:48:00 PM 36.1245 -86.6782 345° North  Level Estimated
Mon 05:49:00 PM 36.1245 -86.6782 345° North  Level Estimated

Login

Don't have an account? Register now (free) for customized features, flight alerts, and more!